sensor_id;sensor_type;location;lat;lon;timestamp;pressure;altitude;pressure_sealevel;temperature;humidity
36598;BME280;22607;49.550;11.940;2023-05-01T00:02:22;96984.44;;;9.31;61.30
36598;BME280;22607;49.550;11.940;2023-05-01T00:04:49;96984.44;;;9.31;59.50
36598;BME280;22607;49.550;11.940;2023-05-01T00:07:16;96986.41;;;9.29;60.16
36598;BME280;22607;49.550;11.940;2023-05-01T00:09:42;96970.31;;;9.15;59.64
36598;BME280;22607;49.550;11.940;2023-05-01T00:12:09;96981.63;;;9.24;60.77
36598;BME280;22607;49.550;11.940;2023-05-01T00:14:36;96984.25;;;9.24;61.95
36598;BME280;22607;49.550;11.940;2023-05-01T00:17:03;96972.94;;;9.15;60.56
36598;BME280;22607;49.550;11.940;2023-05-01T00:19:29;96968.53;;;9.16;61.22
36598;BME280;22607;49.550;11.940;2023-05-01T00:21:56;96964.72;;;9.10;60.57
36598;BME280;22607;49.550;11.940;2023-05-01T00:24:22;96965.88;;;9.08;60.88
36598;BME280;22607;49.550;11.940;2023-05-01T00:26:49;96965.22;;;9.14;61.59
36598;BME280;22607;49.550;11.940;2023-05-01T00:29:15;96967.03;;;9.13;60.57
36598;BME280;22607;49.550;11.940;2023-05-01T00:31:42;96952.44;;;9.02;61.27
36598;BME280;22607;49.550;11.940;2023-05-01T00:34:09;96964.25;;;9.06;61.67
36598;BME280;22607;49.550;11.940;2023-05-01T00:36:37;96958.66;;;9.10;60.26
36598;BME280;22607;49.550;11.940;2023-05-01T00:39:04;96963.25;;;9.08;60.72
36598;BME280;22607;49.550;11.940;2023-05-01T00:41:33;96957.94;;;8.83;60.74
36598;BME280;22607;49.550;11.940;2023-05-01T00:44:00;96950.31;;;9.06;60.86
36598;BME280;22607;49.550;11.940;2023-05-01T00:46:28;96944.56;;;9.02;60.91
36598;BME280;22607;49.550;11.940;2023-05-01T00:48:56;96943.72;;;8.93;61.68
36598;BME280;22607;49.550;11.940;2023-05-01T00:51:25;96941.78;;;8.96;61.86
36598;BME280;22607;49.550;11.940;2023-05-01T00:53:54;96943.66;;;8.77;62.54
36598;BME280;22607;49.550;11.940;2023-05-01T00:56:21;96933.69;;;8.80;62.99
36598;BME280;22607;49.550;11.940;2023-05-01T00:58:49;96936.13;;;8.74;62.96
36598;BME280;22607;49.550;11.940;2023-05-01T01:01:20;96926.63;;;8.73;62.69
36598;BME280;22607;49.550;11.940;2023-05-01T01:03:47;96936.16;;;8.82;62.64
36598;BME280;22607;49.550;11.940;2023-05-01T01:14:22;96897.75;;;8.56;63.66
36598;BME280;22607;49.550;11.940;2023-05-01T01:16:56;96898.47;;;8.75;63.47
36598;BME280;22607;49.550;11.940;2023-05-01T01:22:30;96903.06;;;8.73;63.40
36598;BME280;22607;49.550;11.940;2023-05-01T01:36:44;96904.84;;;8.64;64.37
36598;BME280;22607;49.550;11.940;2023-05-01T01:41:57;96897.72;;;8.48;65.44
36598;BME280;22607;49.550;11.940;2023-05-01T01:44:39;96897.59;;;8.58;65.85
36598;BME280;22607;49.550;11.940;2023-05-01T01:47:09;96886.97;;;8.59;65.92
36598;BME280;22607;49.550;11.940;2023-05-01T01:49:41;96897.38;;;8.51;64.98
36598;BME280;22607;49.550;11.940;2023-05-01T01:52:11;96895.66;;;8.60;67.77
36598;BME280;22607;49.550;11.940;2023-05-01T01:54:47;96896.81;;;8.57;66.58
36598;BME280;22607;49.550;11.940;2023-05-01T01:57:17;96890.50;;;8.50;66.80
36598;BME280;22607;49.550;11.940;2023-05-01T01:59:45;96889.25;;;8.54;66.22
36598;BME280;22607;49.550;11.940;2023-05-01T02:02:14;96869.69;;;8.40;67.27
36598;BME280;22607;49.550;11.940;2023-05-01T02:04:43;96889.09;;;8.56;66.13
36598;BME280;22607;49.550;11.940;2023-05-01T02:07:11;96889.69;;;8.49;67.09
36598;BME280;22607;49.550;11.940;2023-05-01T02:09:40;96878.31;;;8.32;66.47
36598;BME280;22607;49.550;11.940;2023-05-01T02:12:07;96880.75;;;8.25;66.44
36598;BME280;22607;49.550;11.940;2023-05-01T02:14:36;96881.28;;;8.37;66.80
36598;BME280;22607;49.550;11.940;2023-05-01T02:17:04;96872.09;;;8.25;67.19
36598;BME280;22607;49.550;11.940;2023-05-01T02:19:33;96868.38;;;8.36;67.32
36598;BME280;22607;49.550;11.940;2023-05-01T02:22:00;96873.59;;;8.27;66.99
36598;BME280;22607;49.550;11.940;2023-05-01T02:24:29;96879.97;;;8.33;68.02
36598;BME280;22607;49.550;11.940;2023-05-01T02:27:03;96864.91;;;8.27;67.04
36598;BME280;22607;49.550;11.940;2023-05-01T02:29:34;96860.59;;;8.18;68.17
36598;BME280;22607;49.550;11.940;2023-05-01T02:32:01;96872.69;;;8.19;68.59
36598;BME280;22607;49.550;11.940;2023-05-01T02:34:28;96867.16;;;8.22;68.51
36598;BME280;22607;49.550;11.940;2023-05-01T02:36:54;96853.69;;;8.08;68.95
36598;BME280;22607;49.550;11.940;2023-05-01T02:39:21;96858.28;;;8.06;68.73
36598;BME280;22607;49.550;11.940;2023-05-01T02:41:48;96861.25;;;8.11;68.82
36598;BME280;22607;49.550;11.940;2023-05-01T02:44:16;96860.41;;;8.11;69.14
36598;BME280;22607;49.550;11.940;2023-05-01T02:46:46;96861.19;;;8.03;69.33
36598;BME280;22607;49.550;11.940;2023-05-01T02:49:15;96851.38;;;8.05;69.48
36598;BME280;22607;49.550;11.940;2023-05-01T02:51:45;96841.19;;;7.94;69.88
36598;BME280;22607;49.550;11.940;2023-05-01T02:54:12;96842.47;;;7.90;68.49
36598;BME280;22607;49.550;11.940;2023-05-01T02:56:39;96836.84;;;7.76;69.30
36598;BME280;22607;49.550;11.940;2023-05-01T02:59:05;96840.56;;;8.00;68.60
36598;BME280;22607;49.550;11.940;2023-05-01T03:01:32;96828.00;;;7.77;70.11
36598;BME280;22607;49.550;11.940;2023-05-01T03:03:59;96835.84;;;7.77;69.34
36598;BME280;22607;49.550;11.940;2023-05-01T03:06:26;96832.69;;;7.92;70.14
36598;BME280;22607;49.550;11.940;2023-05-01T03:08:54;96831.72;;;7.93;69.50
36598;BME280;22607;49.550;11.940;2023-05-01T03:11:22;96834.94;;;7.86;68.54
36598;BME280;22607;49.550;11.940;2023-05-01T03:13:49;96825.94;;;7.89;68.01
36598;BME280;22607;49.550;11.940;2023-05-01T03:16:16;96828.28;;;7.92;68.72
36598;BME280;22607;49.550;11.940;2023-05-01T03:18:43;96829.06;;;7.84;69.12
36598;BME280;22607;49.550;11.940;2023-05-01T03:21:09;96820.84;;;7.79;69.54
36598;BME280;22607;49.550;11.940;2023-05-01T03:23:38;96812.38;;;7.85;69.00
36598;BME280;22607;49.550;11.940;2023-05-01T03:26:04;96816.31;;;7.90;68.68
36598;BME280;22607;49.550;11.940;2023-05-01T03:28:32;96825.31;;;7.87;68.99
36598;BME280;22607;49.550;11.940;2023-05-01T03:30:58;96814.34;;;7.83;68.78
36598;BME280;22607;49.550;11.940;2023-05-01T03:33:25;96813.34;;;7.84;69.30
36598;BME280;22607;49.550;11.940;2023-05-01T03:36:03;96797.28;;;7.71;68.31
36598;BME280;22607;49.550;11.940;2023-05-01T03:38:31;96817.47;;;7.87;69.95
36598;BME280;22607;49.550;11.940;2023-05-01T03:40:58;96818.88;;;7.73;68.80
36598;BME280;22607;49.550;11.940;2023-05-01T03:43:25;96801.53;;;7.72;69.76
36598;BME280;22607;49.550;11.940;2023-05-01T03:45:51;96802.75;;;7.86;68.81
36598;BME280;22607;49.550;11.940;2023-05-01T03:48:18;96795.72;;;7.86;68.90
36598;BME280;22607;49.550;11.940;2023-05-01T03:50:45;96790.81;;;7.83;68.23
36598;BME280;22607;49.550;11.940;2023-05-01T03:53:13;96789.88;;;7.93;68.26
36598;BME280;22607;49.550;11.940;2023-05-01T03:55:39;96792.09;;;7.79;67.99
36598;BME280;22607;49.550;11.940;2023-05-01T03:58:06;96790.38;;;7.96;68.11
36598;BME280;22607;49.550;11.940;2023-05-01T04:00:33;96794.56;;;7.81;70.31
36598;BME280;22607;49.550;11.940;2023-05-01T04:02:59;96789.63;;;7.78;69.83
36598;BME280;22607;49.550;11.940;2023-05-01T04:05:26;96782.91;;;7.75;68.36
36598;BME280;22607;49.550;11.940;2023-05-01T04:07:53;96787.16;;;7.76;69.97
36598;BME280;22607;49.550;11.940;2023-05-01T04:10:19;96792.25;;;7.78;71.55
36598;BME280;22607;49.550;11.940;2023-05-01T04:12:46;96786.75;;;7.62;70.43
36598;BME280;22607;49.550;11.940;2023-05-01T04:15:12;96793.06;;;7.78;71.54
36598;BME280;22607;49.550;11.940;2023-05-01T04:17:41;96803.34;;;7.80;72.77
36598;BME280;22607;49.550;11.940;2023-05-01T04:20:09;96788.66;;;7.79;70.82
36598;BME280;22607;49.550;11.940;2023-05-01T04:22:36;96802.91;;;7.84;73.59
36598;BME280;22607;49.550;11.940;2023-05-01T04:25:03;96786.56;;;7.82;72.73
36598;BME280;22607;49.550;11.940;2023-05-01T04:27:30;96787.88;;;7.86;70.33
36598;BME280;22607;49.550;11.940;2023-05-01T04:29:57;96798.13;;;7.80;71.63
36598;BME280;22607;49.550;11.940;2023-05-01T04:32:28;96793.81;;;7.97;72.10
36598;BME280;22607;49.550;11.940;2023-05-01T04:34:54;96796.63;;;8.04;72.50
36598;BME280;22607;49.550;11.940;2023-05-01T04:37:21;96780.75;;;8.05;69.72
36598;BME280;22607;49.550;11.940;2023-05-01T04:39:47;96785.72;;;8.17;70.06
36598;BME280;22607;49.550;11.940;2023-05-01T04:42:14;96790.31;;;8.23;68.66
36598;BME280;22607;49.550;11.940;2023-05-01T04:44:41;96785.25;;;8.30;68.62
36598;BME280;22607;49.550;11.940;2023-05-01T04:47:08;96783.09;;;8.17;73.38
36598;BME280;22607;49.550;11.940;2023-05-01T04:49:34;96777.41;;;8.30;70.79
36598;BME280;22607;49.550;11.940;2023-05-01T04:52:01;96776.78;;;8.36;70.04
36598;BME280;22607;49.550;11.940;2023-05-01T04:54:27;96775.34;;;8.50;70.73
36598;BME280;22607;49.550;11.940;2023-05-01T04:56:54;96776.31;;;8.49;71.67
36598;BME280;22607;49.550;11.940;2023-05-01T04:59:21;96788.44;;;8.50;69.83
36598;BME280;22607;49.550;11.940;2023-05-01T05:01:47;96780.94;;;8.55;71.12
36598;BME280;22607;49.550;11.940;2023-05-01T05:04:14;96787.03;;;8.64;71.03
36598;BME280;22607;49.550;11.940;2023-05-01T05:06:40;96795.41;;;8.76;70.85
36598;BME280;22607;49.550;11.940;2023-05-01T05:09:07;96791.31;;;9.06;69.56
36598;BME280;22607;49.550;11.940;2023-05-01T05:11:33;96791.63;;;9.28;66.97
36598;BME280;22607;49.550;11.940;2023-05-01T05:14:00;96782.13;;;9.27;64.38
36598;BME280;22607;49.550;11.940;2023-05-01T05:16:26;96773.44;;;9.27;65.28
36598;BME280;22607;49.550;11.940;2023-05-01T05:18:56;96787.84;;;9.56;63.69
36598;BME280;22607;49.550;11.940;2023-05-01T05:21:23;96783.69;;;9.70;64.92
36598;BME280;22607;49.550;11.940;2023-05-01T05:23:49;96777.72;;;10.01;64.09
36598;BME280;22607;49.550;11.940;2023-05-01T05:26:16;96782.41;;;10.54;61.19
36598;BME280;22607;49.550;11.940;2023-05-01T05:28:43;96777.94;;;11.10;60.17
36598;BME280;22607;49.550;11.940;2023-05-01T05:31:10;96776.38;;;11.00;61.24
36598;BME280;22607;49.550;11.940;2023-05-01T05:33:37;96758.84;;;11.46;58.31
36598;BME280;22607;49.550;11.940;2023-05-01T05:36:04;96760.69;;;11.91;56.16
36598;BME280;22607;49.550;11.940;2023-05-01T05:38:32;96754.69;;;11.97;54.48
36598;BME280;22607;49.550;11.940;2023-05-01T05:40:58;96758.69;;;11.93;54.32
36598;BME280;22607;49.550;11.940;2023-05-01T05:43:26;96768.59;;;11.91;54.52
36598;BME280;22607;49.550;11.940;2023-05-01T05:45:59;96763.34;;;11.22;55.21
36598;BME280;22607;49.550;11.940;2023-05-01T05:48:26;96765.88;;;11.15;55.38
36598;BME280;22607;49.550;11.940;2023-05-01T05:50:53;96776.88;;;10.96;56.69
36598;BME280;22607;49.550;11.940;2023-05-01T05:53:20;96776.38;;;11.00;56.98
36598;BME280;22607;49.550;11.940;2023-05-01T05:55:49;96775.38;;;11.01;56.71
36598;BME280;22607;49.550;11.940;2023-05-01T05:58:16;96784.94;;;10.71;58.02
36598;BME280;22607;49.550;11.940;2023-05-01T06:00:46;96779.16;;;10.75;58.00
36598;BME280;22607;49.550;11.940;2023-05-01T06:03:14;96776.81;;;10.81;58.16
36598;BME280;22607;49.550;11.940;2023-05-01T06:05:42;96779.09;;;10.84;58.34
36598;BME280;22607;49.550;11.940;2023-05-01T06:08:09;96780.09;;;10.83;58.37
36598;BME280;22607;49.550;11.940;2023-05-01T06:10:36;96775.13;;;10.88;58.09
36598;BME280;22607;49.550;11.940;2023-05-01T06:13:05;96763.34;;;11.07;57.49
36598;BME280;22607;49.550;11.940;2023-05-01T06:15:39;96755.47;;;12.06;55.76
36598;BME280;22607;49.550;11.940;2023-05-01T06:18:06;96747.16;;;12.83;53.85
36598;BME280;22607;49.550;11.940;2023-05-01T06:20:33;96750.41;;;13.35;52.59
36598;BME280;22607;49.550;11.940;2023-05-01T06:23:00;96744.91;;;13.52;52.27
36598;BME280;22607;49.550;11.940;2023-05-01T06:25:27;96735.28;;;13.80;50.93
36598;BME280;22607;49.550;11.940;2023-05-01T06:27:53;96742.00;;;14.31;49.98
36598;BME280;22607;49.550;11.940;2023-05-01T06:30:20;96744.72;;;14.58;49.44
36598;BME280;22607;49.550;11.940;2023-05-01T06:32:47;96737.06;;;14.90;48.75
36598;BME280;22607;49.550;11.940;2023-05-01T06:35:14;96733.13;;;14.59;48.77
36598;BME280;22607;49.550;11.940;2023-05-01T06:37:40;96732.94;;;14.67;48.49
36598;BME280;22607;49.550;11.940;2023-05-01T06:40:08;96739.56;;;14.23;49.47
36598;BME280;22607;49.550;11.940;2023-05-01T06:42:37;96732.84;;;14.20;49.11
36598;BME280;22607;49.550;11.940;2023-05-01T06:45:05;96727.97;;;14.24;48.80
36598;BME280;22607;49.550;11.940;2023-05-01T06:47:33;96732.88;;;14.40;48.85
36598;BME280;22607;49.550;11.940;2023-05-01T06:49:59;96724.00;;;14.55;47.89
36598;BME280;22607;49.550;11.940;2023-05-01T06:52:30;96729.69;;;14.65;48.53
36598;BME280;22607;49.550;11.940;2023-05-01T06:54:56;96726.31;;;14.92;47.31
36598;BME280;22607;49.550;11.940;2023-05-01T06:57:23;96716.13;;;15.29;47.50
36598;BME280;22607;49.550;11.940;2023-05-01T06:59:49;96722.19;;;15.50;46.78
36598;BME280;22607;49.550;11.940;2023-05-01T07:02:16;96712.81;;;15.61;46.18
36598;BME280;22607;49.550;11.940;2023-05-01T07:04:43;96710.00;;;15.35;46.20
36598;BME280;22607;49.550;11.940;2023-05-01T07:07:10;96715.94;;;15.17;48.57
36598;BME280;22607;49.550;11.940;2023-05-01T07:09:37;96702.91;;;14.95;47.02
36598;BME280;22607;49.550;11.940;2023-05-01T07:12:04;96705.13;;;15.26;47.53
36598;BME280;22607;49.550;11.940;2023-05-01T07:14:33;96701.47;;;15.13;47.58
36598;BME280;22607;49.550;11.940;2023-05-01T07:17:01;96698.75;;;15.67;46.48
36598;BME280;22607;49.550;11.940;2023-05-01T07:19:28;96693.22;;;15.75;46.29
36598;BME280;22607;49.550;11.940;2023-05-01T07:21:55;96695.91;;;15.62;48.26
36598;BME280;22607;49.550;11.940;2023-05-01T07:24:21;96692.97;;;15.91;46.81
36598;BME280;22607;49.550;11.940;2023-05-01T07:26:48;96692.94;;;15.25;47.25
36598;BME280;22607;49.550;11.940;2023-05-01T07:29:15;96686.00;;;15.03;47.90
36598;BME280;22607;49.550;11.940;2023-05-01T07:31:44;96682.78;;;15.94;46.18
36598;BME280;22607;49.550;11.940;2023-05-01T07:34:11;96688.53;;;16.30;46.80
36598;BME280;22607;49.550;11.940;2023-05-01T07:36:38;96685.84;;;16.37;45.65
36598;BME280;22607;49.550;11.940;2023-05-01T07:39:06;96682.44;;;16.62;46.01
36598;BME280;22607;49.550;11.940;2023-05-01T07:41:33;96674.44;;;16.69;44.81
36598;BME280;22607;49.550;11.940;2023-05-01T07:44:00;96672.00;;;17.18;44.67
36598;BME280;22607;49.550;11.940;2023-05-01T07:46:26;96673.50;;;17.32;44.15
36598;BME280;22607;49.550;11.940;2023-05-01T07:48:53;96680.97;;;17.42;43.56
36598;BME280;22607;49.550;11.940;2023-05-01T07:51:20;96672.31;;;17.28;43.66
36598;BME280;22607;49.550;11.940;2023-05-01T07:53:47;96669.63;;;17.10;44.37
36598;BME280;22607;49.550;11.940;2023-05-01T07:56:14;96674.00;;;16.72;46.33
36598;BME280;22607;49.550;11.940;2023-05-01T07:58:42;96669.59;;;16.59;46.48
36598;BME280;22607;49.550;11.940;2023-05-01T08:01:09;96667.09;;;16.64;44.62
36598;BME280;22607;49.550;11.940;2023-05-01T08:03:36;96666.97;;;16.52;44.96
36598;BME280;22607;49.550;11.940;2023-05-01T08:06:03;96675.28;;;16.30;45.18
36598;BME280;22607;49.550;11.940;2023-05-01T08:08:30;96673.56;;;16.43;45.19
36598;BME280;22607;49.550;11.940;2023-05-01T08:10:57;96674.53;;;16.80;44.87
36598;BME280;22607;49.550;11.940;2023-05-01T08:13:23;96662.59;;;17.22;44.39
36598;BME280;22607;49.550;11.940;2023-05-01T08:15:50;96667.78;;;17.54;45.38
36598;BME280;22607;49.550;11.940;2023-05-01T08:18:17;96654.50;;;17.54;43.78
36598;BME280;22607;49.550;11.940;2023-05-01T08:20:47;96658.09;;;17.79;43.21
36598;BME280;22607;49.550;11.940;2023-05-01T08:23:15;96661.56;;;17.79;43.59
36598;BME280;22607;49.550;11.940;2023-05-01T08:25:42;96650.94;;;17.79;42.55
36598;BME280;22607;49.550;11.940;2023-05-01T08:28:13;96641.75;;;17.94;43.34
36598;BME280;22607;49.550;11.940;2023-05-01T08:30:40;96646.66;;;18.28;42.15
36598;BME280;22607;49.550;11.940;2023-05-01T08:33:06;96645.28;;;18.25;41.21
36598;BME280;22607;49.550;11.940;2023-05-01T08:35:33;96651.63;;;18.24;41.54
36598;BME280;22607;49.550;11.940;2023-05-01T08:38:00;96640.34;;;18.41;41.08
36598;BME280;22607;49.550;11.940;2023-05-01T08:40:31;96650.88;;;18.47;40.81
36598;BME280;22607;49.550;11.940;2023-05-01T08:42:59;96645.69;;;18.53;42.28
36598;BME280;22607;49.550;11.940;2023-05-01T08:45:27;96643.50;;;18.49;41.09
36598;BME280;22607;49.550;11.940;2023-05-01T08:47:57;96647.34;;;18.66;40.10
36598;BME280;22607;49.550;11.940;2023-05-01T08:50:24;96649.22;;;19.01;39.95
36598;BME280;22607;49.550;11.940;2023-05-01T08:52:53;96648.75;;;18.80;39.15
36598;BME280;22607;49.550;11.940;2023-05-01T08:55:21;96642.25;;;18.64;40.05
36598;BME280;22607;49.550;11.940;2023-05-01T08:57:49;96646.59;;;18.46;39.93
36598;BME280;22607;49.550;11.940;2023-05-01T09:00:18;96640.03;;;18.61;40.99
36598;BME280;22607;49.550;11.940;2023-05-01T09:02:47;96632.66;;;18.63;39.62
36598;BME280;22607;49.550;11.940;2023-05-01T09:05:15;96646.22;;;18.85;39.51
36598;BME280;22607;49.550;11.940;2023-05-01T09:07:44;96642.03;;;18.66;39.67
36598;BME280;22607;49.550;11.940;2023-05-01T09:10:17;96629.31;;;18.68;38.99
36598;BME280;22607;49.550;11.940;2023-05-01T09:12:48;96635.88;;;18.65;39.68
36598;BME280;22607;49.550;11.940;2023-05-01T09:15:14;96628.59;;;18.60;39.19
36598;BME280;22607;49.550;11.940;2023-05-01T09:17:42;96629.13;;;18.39;39.23
36598;BME280;22607;49.550;11.940;2023-05-01T09:20:10;96620.78;;;18.89;38.69
36598;BME280;22607;49.550;11.940;2023-05-01T09:22:37;96629.84;;;18.58;38.13
36598;BME280;22607;49.550;11.940;2023-05-01T09:25:04;96612.78;;;18.89;38.42
36598;BME280;22607;49.550;11.940;2023-05-01T09:27:33;96619.31;;;19.06;38.77
36598;BME280;22607;49.550;11.940;2023-05-01T09:30:03;96618.63;;;18.44;40.00
36598;BME280;22607;49.550;11.940;2023-05-01T09:32:31;96622.69;;;18.58;39.46
36598;BME280;22607;49.550;11.940;2023-05-01T09:35:12;96618.75;;;18.61;39.81
36598;BME280;22607;49.550;11.940;2023-05-01T09:37:39;96612.53;;;18.13;40.32
36598;BME280;22607;49.550;11.940;2023-05-01T09:40:11;96628.13;;;18.63;38.98
36598;BME280;22607;49.550;11.940;2023-05-01T09:42:39;96620.63;;;18.18;39.35
36598;BME280;22607;49.550;11.940;2023-05-01T09:45:15;96610.09;;;18.11;38.82
36598;BME280;22607;49.550;11.940;2023-05-01T09:47:43;96600.00;;;18.01;39.22
36598;BME280;22607;49.550;11.940;2023-05-01T09:50:31;96610.38;;;18.21;39.42
36598;BME280;22607;49.550;11.940;2023-05-01T09:53:03;96611.03;;;18.17;39.22
36598;BME280;22607;49.550;11.940;2023-05-01T09:55:30;96602.13;;;17.92;39.54
36598;BME280;22607;49.550;11.940;2023-05-01T09:57:57;96621.97;;;18.08;40.08
36598;BME280;22607;49.550;11.940;2023-05-01T10:00:26;96614.13;;;18.14;40.80
36598;BME280;22607;49.550;11.940;2023-05-01T10:02:53;96621.41;;;18.49;39.03
36598;BME280;22607;49.550;11.940;2023-05-01T10:05:20;96609.13;;;18.05;40.30
36598;BME280;22607;49.550;11.940;2023-05-01T10:10:24;96600.69;;;18.39;39.75
36598;BME280;22607;49.550;11.940;2023-05-01T10:12:51;96616.00;;;17.64;40.31
36598;BME280;22607;49.550;11.940;2023-05-01T10:15:18;96613.94;;;18.27;40.23
36598;BME280;22607;49.550;11.940;2023-05-01T10:17:52;96607.38;;;18.30;40.43
36598;BME280;22607;49.550;11.940;2023-05-01T10:20:19;96610.66;;;18.44;40.30
36598;BME280;22607;49.550;11.940;2023-05-01T10:22:46;96602.91;;;18.54;39.86
36598;BME280;22607;49.550;11.940;2023-05-01T10:25:15;96600.97;;;18.73;41.13
36598;BME280;22607;49.550;11.940;2023-05-01T10:27:42;96613.81;;;18.76;39.65
36598;BME280;22607;49.550;11.940;2023-05-01T10:30:09;96601.22;;;18.72;40.52
36598;BME280;22607;49.550;11.940;2023-05-01T10:32:39;96598.44;;;18.91;39.23
36598;BME280;22607;49.550;11.940;2023-05-01T10:35:14;96600.06;;;18.92;38.15
36598;BME280;22607;49.550;11.940;2023-05-01T10:37:54;96602.69;;;18.56;40.11
36598;BME280;22607;49.550;11.940;2023-05-01T10:45:46;96604.53;;;18.55;39.95
36598;BME280;22607;49.550;11.940;2023-05-01T10:51:13;96588.47;;;18.98;39.13
36598;BME280;22607;49.550;11.940;2023-05-01T10:53:41;96583.41;;;18.72;40.48
36598;BME280;22607;49.550;11.940;2023-05-01T11:03:55;96581.44;;;18.68;39.98
36598;BME280;22607;49.550;11.940;2023-05-01T11:06:22;96576.09;;;18.68;39.43
36598;BME280;22607;49.550;11.940;2023-05-01T11:08:49;96580.75;;;18.72;40.29
36598;BME280;22607;49.550;11.940;2023-05-01T11:14:03;96571.22;;;18.41;40.60
36598;BME280;22607;49.550;11.940;2023-05-01T11:19:42;96571.19;;;18.29;41.58
36598;BME280;22607;49.550;11.940;2023-05-01T11:21:56;96563.50;;;18.99;40.34
36598;BME280;22607;49.550;11.940;2023-05-01T11:24:32;96572.38;;;18.45;41.08
36598;BME280;22607;49.550;11.940;2023-05-01T11:26:59;96571.00;;;19.02;41.31
36598;BME280;22607;49.550;11.940;2023-05-01T11:29:30;96566.06;;;19.06;41.11
36598;BME280;22607;49.550;11.940;2023-05-01T11:31:59;96557.97;;;19.12;39.80
36598;BME280;22607;49.550;11.940;2023-05-01T11:34:26;96553.59;;;19.35;40.56
36598;BME280;22607;49.550;11.940;2023-05-01T11:36:53;96553.66;;;19.64;40.03
36598;BME280;22607;49.550;11.940;2023-05-01T11:39:19;96549.75;;;19.55;39.38
36598;BME280;22607;49.550;11.940;2023-05-01T11:41:47;96555.53;;;19.81;39.62
36598;BME280;22607;49.550;11.940;2023-05-01T11:44:15;96549.03;;;19.60;38.16
36598;BME280;22607;49.550;11.940;2023-05-01T11:46:43;96556.88;;;19.37;37.84
36598;BME280;22607;49.550;11.940;2023-05-01T11:49:10;96549.28;;;19.05;38.79
36598;BME280;22607;49.550;11.940;2023-05-01T11:51:36;96559.09;;;18.81;39.14
36598;BME280;22607;49.550;11.940;2023-05-01T11:54:07;96552.06;;;18.86;41.61
36598;BME280;22607;49.550;11.940;2023-05-01T11:56:41;96542.09;;;19.18;40.11
36598;BME280;22607;49.550;11.940;2023-05-01T11:59:17;96539.88;;;19.26;39.41
36598;BME280;22607;49.550;11.940;2023-05-01T12:01:45;96540.47;;;19.05;40.18
36598;BME280;22607;49.550;11.940;2023-05-01T12:04:15;96538.97;;;18.97;38.58
36598;BME280;22607;49.550;11.940;2023-05-01T12:06:48;96535.59;;;19.25;39.11
36598;BME280;22607;49.550;11.940;2023-05-01T12:09:16;96550.84;;;19.30;39.90
36598;BME280;22607;49.550;11.940;2023-05-01T12:11:44;96547.28;;;18.41;40.12
36598;BME280;22607;49.550;11.940;2023-05-01T12:14:15;96540.13;;;19.13;39.47
36598;BME280;22607;49.550;11.940;2023-05-01T12:16:43;96543.50;;;18.72;40.41
36598;BME280;22607;49.550;11.940;2023-05-01T12:19:13;96540.78;;;19.32;39.58
36598;BME280;22607;49.550;11.940;2023-05-01T12:21:40;96530.97;;;19.21;39.74
36598;BME280;22607;49.550;11.940;2023-05-01T12:24:09;96545.00;;;19.16;40.84
36598;BME280;22607;49.550;11.940;2023-05-01T12:40:31;96522.81;;;19.39;41.66
36598;BME280;22607;49.550;11.940;2023-05-01T12:42:58;96534.53;;;19.26;41.66
36598;BME280;22607;49.550;11.940;2023-05-01T12:45:27;96531.22;;;19.19;40.58
36598;BME280;22607;49.550;11.940;2023-05-01T12:47:54;96542.75;;;19.25;41.37
36598;BME280;22607;49.550;11.940;2023-05-01T12:50:21;96533.31;;;19.05;40.92
36598;BME280;22607;49.550;11.940;2023-05-01T12:52:47;96526.47;;;18.97;40.92
36598;BME280;22607;49.550;11.940;2023-05-01T12:55:14;96524.50;;;19.05;41.12
36598;BME280;22607;49.550;11.940;2023-05-01T12:57:52;96522.78;;;19.10;40.44
36598;BME280;22607;49.550;11.940;2023-05-01T13:00:19;96521.03;;;19.16;40.84
36598;BME280;22607;49.550;11.940;2023-05-01T13:02:46;96521.59;;;19.18;40.63
36598;BME280;22607;49.550;11.940;2023-05-01T13:05:14;96521.53;;;18.53;42.26
36598;BME280;22607;49.550;11.940;2023-05-01T13:07:46;96518.28;;;18.39;43.14
36598;BME280;22607;49.550;11.940;2023-05-01T13:10:13;96526.97;;;18.70;42.80
36598;BME280;22607;49.550;11.940;2023-05-01T13:12:46;96533.44;;;18.39;44.89
36598;BME280;22607;49.550;11.940;2023-05-01T13:15:19;96523.84;;;18.38;44.03
36598;BME280;22607;49.550;11.940;2023-05-01T13:17:47;96528.13;;;18.39;44.11
36598;BME280;22607;49.550;11.940;2023-05-01T13:20:24;96523.47;;;18.46;46.55
36598;BME280;22607;49.550;11.940;2023-05-01T13:22:52;96526.78;;;18.05;45.88
36598;BME280;22607;49.550;11.940;2023-05-01T13:25:25;96513.91;;;18.45;44.61
36598;BME280;22607;49.550;11.940;2023-05-01T13:27:52;96518.03;;;18.17;45.44
36598;BME280;22607;49.550;11.940;2023-05-01T13:30:27;96519.31;;;17.83;45.43
36598;BME280;22607;49.550;11.940;2023-05-01T13:32:56;96511.63;;;18.06;45.42
36598;BME280;22607;49.550;11.940;2023-05-01T13:35:33;96519.25;;;18.02;45.85
36598;BME280;22607;49.550;11.940;2023-05-01T13:38:02;96513.56;;;17.87;45.25
36598;BME280;22607;49.550;11.940;2023-05-01T13:40:32;96520.41;;;17.64;45.81
36598;BME280;22607;49.550;11.940;2023-05-01T13:42:59;96522.19;;;17.51;46.80
36598;BME280;22607;49.550;11.940;2023-05-01T13:45:26;96520.91;;;17.04;47.43
36598;BME280;22607;49.550;11.940;2023-05-01T13:47:54;96525.28;;;17.48;51.30
36598;BME280;22607;49.550;11.940;2023-05-01T13:50:21;96521.63;;;17.49;52.20
36598;BME280;22607;49.550;11.940;2023-05-01T13:52:48;96531.81;;;17.34;55.73
36598;BME280;22607;49.550;11.940;2023-05-01T13:55:15;96536.81;;;17.42;55.99
36598;BME280;22607;49.550;11.940;2023-05-01T13:57:44;96537.09;;;17.34;55.35
36598;BME280;22607;49.550;11.940;2023-05-01T14:00:15;96542.63;;;17.13;56.26
36598;BME280;22607;49.550;11.940;2023-05-01T14:02:46;96517.88;;;17.01;57.64